Flight Track Log - Related Links

Times and Time Zones

All times are in EDT time to prevent confusion due to time zone crossing. See the N129SA flight status page for this flight to view local times or setup timezone preferences in your user account.

Time Position Orientation Groundspeed Altitude Reporting Facility
EDT Latitude Longitude Course Direction KTS MPH feet Rate Location/Type
Fri 06:55:00 PM 37.1016 -93.1426 126° Southeast  Level Estimated
Fri 06:56:00 PM 37.0775 -93.1017 126° Southeast  Level Estimated
Fri 06:57:00 PM 37.0534 -93.0608 126° Southeast  Level Estimated
Fri 06:58:00 PM 37.0293 -93.0199 126° Southeast  Level Estimated
Fri 06:59:00 PM 37.0052 -92.9791 126° Southeast  Level Estimated
Fri 07:00:00 PM 36.9811 -92.9383 126° Southeast  Level Estimated
Fri 07:01:00 PM 36.9569 -92.8975 127° Southeast  Level Estimated
Fri 07:02:00 PM 36.9328 -92.8567 127° Southeast  Level Estimated
Fri 07:03:00 PM 36.9086 -92.8160 127° Southeast  Level Estimated
Fri 07:04:00 PM 36.8844 -92.7753 127° Southeast  Level Estimated
Fri 07:05:00 PM 36.8602 -92.7346 127° Southeast  Level Estimated
Fri 07:06:00 PM 36.8360 -92.6939 127° Southeast  Level Estimated
Fri 07:07:00 PM 36.8118 -92.6533 127° Southeast  Level Estimated
Fri 07:08:00 PM 36.7876 -92.6127 127° Southeast  Level Estimated
Fri 07:09:00 PM 36.7633 -92.5721 127° Southeast  Level Estimated
Fri 07:10:00 PM 36.7391 -92.5316 127° Southeast  Level Estimated
Fri 07:11:00 PM 36.7148 -92.4911 127° Southeast  Level Estimated
Fri 07:12:00 PM 36.6905 -92.4505 127° Southeast  Level Estimated
Fri 07:13:00 PM 36.6662 -92.4101 127° Southeast  Level Estimated
Fri 07:14:00 PM 36.6418 -92.3696 127° Southeast  Level Estimated
Fri 07:15:00 PM 36.6175 -92.3292 127° Southeast  Level Estimated
Fri 07:16:00 PM 36.5932 -92.2888 127° Southeast  Level Estimated
Fri 07:17:00 PM 36.5688 -92.2484 127° Southeast  Level Estimated
Fri 07:18:00 PM 36.5444 -92.2081 127° Southeast  Level Estimated
Fri 07:19:00 PM 36.5201 -92.1677 127° Southeast  Level Estimated
Fri 07:20:00 PM 36.4957 -92.1274 127° Southeast  Level Estimated
Fri 07:21:00 PM 36.4712 -92.0872 127° Southeast  Level Estimated
Fri 07:22:00 PM 36.4468 -92.0469 127° Southeast  Level Estimated
Fri 07:23:00 PM 36.4224 -92.0067 127° Southeast  Level Estimated
Fri 07:24:00 PM 36.3979 -91.9665 127° Southeast  Level Estimated
Fri 07:25:00 PM 36.3735 -91.9263 127° Southeast  Level Estimated
Fri 07:26:00 PM 36.3490 -91.8862 127° Southeast  Level Estimated
Fri 07:27:00 PM 36.3245 -91.8461 127° Southeast  Level Estimated
Fri 07:28:00 PM 36.3000 -91.8060 127° Southeast  Level Estimated
Fri 07:29:00 PM 36.2754 -91.7659 127° Southeast  Level Estimated
Fri 07:30:00 PM 36.2509 -91.7258 127° Southeast  Level Estimated
Fri 07:31:00 PM 36.2263 -91.6858 127° Southeast  Level Estimated
Fri 07:32:00 PM 36.2018 -91.6458 127° Southeast  Level Estimated
Fri 07:33:00 PM 36.1772 -91.6059 127° Southeast  Level Estimated
Fri 07:34:00 PM 36.1526 -91.5659 127° Southeast  Level Estimated
Fri 07:35:00 PM 36.1280 -91.5260 127° Southeast  Level Estimated
Fri 07:36:00 PM 36.1034 -91.4861 127° Southeast  Level Estimated
Fri 07:37:00 PM 36.0788 -91.4462 127° Southeast  Level Estimated
Fri 07:38:00 PM 36.0541 -91.4064 127° Southeast  Level Estimated
Fri 07:39:00 PM 36.0295 -91.3665 127° Southeast  Level Estimated
Fri 07:40:00 PM 36.0048 -91.3267 127° Southeast  Level Estimated
Fri 07:41:00 PM 35.9801 -91.2870 127° Southeast  Level Estimated
Fri 07:42:00 PM 35.9554 -91.2472 128° Southeast  Level Estimated
Fri 07:43:00 PM 35.9307 -91.2075 128° Southeast  Level Estimated
Fri 07:44:00 PM 35.9060 -91.1678 128° Southeast  Level Estimated
Fri 07:45:00 PM 35.8813 -91.1281 128° Southeast  Level Estimated
Fri 07:46:00 PM 35.8565 -91.0885 128° Southeast  Level Estimated
Fri 07:47:00 PM 35.8318 -91.0489 128° Southeast  Level Estimated
Fri 07:48:00 PM 35.8070 -91.0093 128° Southeast  Level Estimated
Fri 07:49:00 PM 35.7822 -90.9697 128° Southeast  Level Estimated
Fri 07:50:00 PM 35.7574 -90.9301 128° Southeast  Level Estimated
Fri 07:51:00 PM 35.7326 -90.8906 128° Southeast  Level Estimated
Fri 07:52:00 PM 35.7078 -90.8511 128° Southeast  Level Estimated
Fri 07:53:00 PM 35.6829 -90.8117 128° Southeast  Level Estimated
Fri 07:54:00 PM 35.6581 -90.7722 128° Southeast  Level Estimated
Fri 07:55:00 PM 35.6332 -90.7328 128° Southeast  Level Estimated
Fri 07:56:00 PM 35.6084 -90.6934 128° Southeast  Level Estimated
Fri 07:57:00 PM 35.5835 -90.6540 128° Southeast  Level Estimated
Fri 07:58:00 PM 35.5586 -90.6146 128° Southeast  Level Estimated
Fri 07:59:00 PM 35.5337 -90.5753 128° Southeast  Level Estimated
Fri 08:00:00 PM 35.5087 -90.5360 128° Southeast  Level Estimated
Fri 08:01:00 PM 35.4838 -90.4967 128° Southeast  Level Estimated
Fri 08:02:00 PM 35.4588 -90.4575 128° Southeast  Level Estimated
Fri 08:03:00 PM 35.4339 -90.4183 128° Southeast  Level Estimated
Fri 08:04:00 PM 35.4089 -90.3791 128° Southeast  Level Estimated
Fri 08:05:00 PM 35.3839 -90.3399 128° Southeast  Level Estimated
Fri 08:06:00 PM 35.3589 -90.3007 128° Southeast  Level Estimated
Fri 08:07:00 PM 35.3339 -90.2616 128° Southeast  Level Estimated
Fri 08:08:00 PM 35.3088 -90.2225 128° Southeast  Level Estimated
Fri 08:09:00 PM 35.2838 -90.1834 128° Southeast  Level Estimated
Fri 08:10:00 PM 35.2588 -90.1443 128° Southeast  Level Estimated
Fri 08:11:00 PM 35.2337 -90.1053 128° Southeast  Level Estimated
Fri 08:12:00 PM 35.2086 -90.0663 128° Southeast  Level Estimated
Fri 08:12:08 PM 35.4333 -90.5167 338° Northwest 154 177 3,000  Level KMEM
Fri 08:12:50 PM 35.4167 -90.4833 122° Southeast 153 176 2,800 -118 Descending KMEM
Fri 08:13:00 PM 35.2007 -90.0540 128° Southeast  Level Estimated
Fri 08:13:50 PM 35.4000 -90.4500 122° Southeast 139 160 2,800  Level KMEM
Fri 08:14:00 PM 35.2007 -90.0540 338° Northwest  Level Estimated
Fri 08:14:50 PM 35.3667 -90.4000 129° Southeast 140 161 2,700  Level KMEM
Fri 08:15:00 PM 35.2007 -90.0540 338° Northwest  Level Estimated
Fri 08:15:50 PM 35.3500 -90.3667 122° Southeast 138 159 2,800  Level KMEM
Fri 08:16:00 PM 35.2007 -90.0540 338° Northwest  Level Estimated
Fri 08:16:54 PM 35.3333 -90.3167 112° Southeast 139 160 2,500  Level KMEM
Fri 08:17:00 PM 35.2007 -90.0540 338° Northwest  Level Estimated
Fri 08:17:51 PM 35.3167 -90.2833 121° Southeast 142 163 2,600  Level KMEM
Fri 08:18:51 PM 35.3000 -90.2333 112° Southeast 134 154 2,700 -100 Climbing KMEM
Fri 08:19:51 PM 35.2833 -90.2000 121° Southeast 139 160 2,400 -200 Descending KMEM
Fri 08:20:51 PM 35.2667 -90.1500 112° Southeast 132 152 2,300 -100 Descending KMEM
Fri 08:22:00 PM 35.2310 -90.1120 121° Southeast  Level FlightAware Approximate

Login

Don't have an account? Register now (free) for customized features, flight alerts, and more!